Shafter, CA

9:12 PM PDT en Octubre 24, 2014 (GMT -0700)
NF6P - Riverlakes (NW) | Change Station
CLOSE
Current Station
Estación meteorológica personal
Location: Bakersfield, CA
Altura: 422 ft
Estaciones meteorológicas cercanas

Alt 422 ft 35.39 °N, 119.10 °W | Updated 4 seconds ago

Despejado
Despejado
64.8 ° F
Sensación térmica 64.8 ° F
N
0.0
Viento Variable Viento desde OSO
Gusts 0.0 mph

Hoy
Alta -- | Baja -- ° F
--% Posibilidad de precipitaciones
Ayer
Alta -- | Baja -- ° F
Precip. -- pul
7:11 AM 6:10 PM
Luna nueva, 2% visible
Presión 29.90 pul
Visibilidad 9.0 Millas
Nubes Despejado
Punto de rocío 56 ° F
Humedad 73%
Precipitaciones 0.00 pul
Espesor de la nieve No disponible.
UV 0 de una escala de 12
Polen 4.10 de una escala de 12
PM2.5 Moderada
Flu Activity Sporadic
METAR KBFL 250354Z 03006KT 9SM CLR 20/08 A2991 RMK AO2 SLP124 T02000078

More Conditions Fewer Conditions

Presión 29.90 pul
Visibilidad 9.0 Millas
Nubes Despejado
Punto de rocío 56 ° F
Humedad 73%
Precipitaciones 0.00 pul
Espesor de la nieve No disponible.
UV 0 de una escala de 12
Polen 4.10 de una escala de 12
PM2.5 Moderada
Flu Activity Sporadic
METAR KBFL 250354Z 03006KT 9SM CLR 20/08 A2991 RMK AO2 SLP124 T02000078

More Conditions Fewer Conditions

10-Day Weather Forecast

Almanac

Astronomía

Oct. 24, 2014 Salida Puesta
Hora real 7:11 AM PDT 6:10 PM PDT
Crepúsculo civil 6:45 AM PDT 6:36 PM PDT
Crepúsculo náutico 6:15 AM PDT 7:06 PM PDT
Crepúsculo astronómico 5:46 AM PDT 7:35 PM PDT
Luna 7:54 AM PDT (10/24) 6:55 PM PDT (10/24)
Horas de luz 11h 51m
Horas de luz
10h 59m
Tomorrow will be 2m 4s shorter.
Luna nueva, 2% of the Moon is Illuminated
Oct 25
Luna nueva
Oct 30
Cuarto creciente
Nov 6
Luna llena
Nov 14
Cuarto menguante
Nov 22
Nueva

Extremos de hoy

Máximos del estado Bajos del estado

Community

WunderPhotos

Upload Photos

1,764,779 ¡fotos cargadas!

Nearby

Calidad del aire

  Calidad del aire Índice AQ Contaminante
Ayer Moderada
OZONE
Ayer Moderada
PM2.5
Real Moderada
PM2.5
Viernes Moderada
OZONE
Sábado Moderada
OZONE
Domingo Buena
OZONE
Lunes Buena
OZONE
Martes Moderada
OZONE
Miércoles Moderada
OZONE

Grosos de nieve

Estación Profundido Altura
Virginia Lakes Ridge 0 in 9200 ft
Leavitt Lake 1 in 9400 ft
Leavitt Meadows 1 in 7200 ft
Summit Meadow 1 in 9122 ft
Blue Lakes 0 in 8000 ft

Actividad de terremotos

Ciudad Distance Mag. Tiempo y dato
Brea, California 133 Millas 2.9 3:35 PM PDT
2014-10-23
Brea, California 133 Millas 2.8 3:34 PM PDT
2014-10-23
Corona, California 145 Millas 2.5 1:09 PM PDT
2014-10-23
Solvang, California 89 Millas 2.6 5:35 PM PDT
2014-10-22
Magnitud mínima muestra es 2,5.

Temperaturas de aguas costeras

Lugar Temperatura
Sin partes meteorológicos de las estaciones

Estaciones meteorológicas cercanas